This is the latest recevied weather packets stored in our database for station/object DG2MCM-11. If no packets are shown the sender has not sent any weather packets the latest 1 day(s).
| Time | Temp. | Humidity | Pressure | Rain* | Wind** | Luminosity | Snow |
|---|---|---|---|---|---|---|---|
| 1778050087 | 12.22° C | 73% | 1007.4 hPa | 0 mm | - | - | - |
| 1778047679 | 11.11° C | 76% | 1007.8 hPa | 0 mm | - | - | - |
| 1778047077 | 11.11° C | 77% | 1007.6 hPa | 0 mm | - | - | - |
| 1778045873 | 11.11° C | 78% | 1007.7 hPa | 0 mm | - | - | - |
| 1778044070 | 8.89° C | 82% | 1008.5 hPa | 0 mm | - | - | - |
| 1778042867 | 8.89° C | 84% | 1009 hPa | 0 mm | - | - | - |
| 1778042325 | 8.33° C | 85% | 1009.1 hPa | 0 mm | - | - | - |
| 1778040519 | 8.33° C | 85% | 1009.2 hPa | 0 mm | - | - | - |
| 1778038715 | 8.33° C | 86% | 1009.4 hPa | 0 mm | - | - | - |
| 1778036911 | 8.89° C | 84% | 1009.6 hPa | 0 mm | - | - | - |
| 1778036309 | 8.89° C | 84% | 1009.8 hPa | 0 mm | - | - | - |
| 1778035106 | 8.33° C | 84% | 1010 hPa | 0 mm | - | - | - |
| 1778034504 | 8.33° C | 85% | 1010 hPa | 0 mm | - | - | - |
| 1778032097 | 8.33° C | 85% | 1010.3 hPa | 0 mm | - | - | - |
| 1778031495 | 8.33° C | 85% | 1010.3 hPa | 0 mm | - | - | - |
| 1778030894 | 8.33° C | 85% | 1010.5 hPa | 0 mm | - | - | - |
| 1778029088 | 7.78° C | 86% | 1010.7 hPa | 0 mm | - | - | - |
| 1778028486 | 7.78° C | 86% | 1010.8 hPa | 0 mm | - | - | - |
| 1778022471 | 9.44° C | 82% | 1010.8 hPa | 0 mm | - | - | - |
| 1778020666 | 10.56° C | 78% | 1010.8 hPa | 0 mm | - | - | - |
| 1778020129 | 10.56° C | 77% | 1010.6 hPa | 0 mm | - | - | - |
| 1778015302 | 10.56° C | 79% | 1010.9 hPa | 0 mm | - | - | - |
| 1778011091 | 11.11° C | 79% | 1010.8 hPa | 0 mm | - | - | - |
| 1778009888 | 11.67° C | 78% | 1010.7 hPa | 0 mm | - | - | - |
* Rain latest hour (hover to see other rain measurements)
** Current wind speed in m/s (hover to see current wind gust speed)